Aviation Digital Data Service (ADDS)

Output produced by METARs form (0730 UTC 27 February 2015)
found at http://aviationweather.gov/adds/metars/
 
KFDY 270525Z 2706/2806 30003KT P6SM SCT035 
     TEMPO 2706/2708 BKN035 
     FM271400 27006KT P6SM SKC